createdAt,value
2022-10-20T00:00:02.016Z,986.35
2022-10-20T00:01:02.017Z,986.34
2022-10-20T00:02:02.027Z,986.33
2022-10-20T00:03:02.936Z,986.27
2022-10-20T00:04:02.169Z,986.24
2022-10-20T00:05:01.942Z,986.29
2022-10-20T00:06:01.953Z,986.26
2022-10-20T00:07:01.935Z,986.27
2022-10-20T00:08:02.000Z,986.28
2022-10-20T00:09:01.982Z,986.25
2022-10-20T00:10:01.939Z,986.29
2022-10-20T00:11:01.887Z,986.32
2022-10-20T00:12:01.877Z,986.32
2022-10-20T00:13:01.863Z,986.33
2022-10-20T00:14:01.876Z,986.35
2022-10-20T00:15:01.866Z,986.32
2022-10-20T00:16:01.870Z,986.34
2022-10-20T00:17:01.821Z,986.27
2022-10-20T00:18:01.818Z,986.30
2022-10-20T00:19:01.821Z,986.29
2022-10-20T00:20:01.832Z,986.29
2022-10-20T00:21:01.768Z,986.30
2022-10-20T00:22:01.771Z,986.31
2022-10-20T00:23:01.754Z,986.28
2022-10-20T00:24:02.664Z,986.30
2022-10-20T00:25:01.777Z,986.25
2022-10-20T00:26:01.730Z,986.23
2022-10-20T00:27:01.722Z,986.25
2022-10-20T00:28:01.732Z,986.22
2022-10-20T00:29:01.678Z,986.20
2022-10-20T00:30:01.673Z,986.22
2022-10-20T00:31:01.674Z,986.22
2022-10-20T00:32:01.785Z,986.19
2022-10-20T00:33:01.642Z,986.16
2022-10-20T00:34:01.643Z,986.13
2022-10-20T00:35:01.610Z,986.20
2022-10-20T00:36:01.622Z,986.19
2022-10-20T00:37:01.633Z,986.10
2022-10-20T00:38:01.614Z,986.01
2022-10-20T00:39:01.570Z,986.01
2022-10-20T00:40:01.569Z,986.01
2022-10-20T00:41:01.560Z,985.97
2022-10-20T00:42:01.580Z,985.89
2022-10-20T00:43:01.521Z,985.92
2022-10-20T00:44:01.598Z,985.90
2022-10-20T00:45:01.620Z,985.88
2022-10-20T00:46:01.510Z,985.89
2022-10-20T00:47:02.148Z,985.87
2022-10-20T00:48:01.489Z,985.81
2022-10-20T00:49:01.498Z,985.81
2022-10-20T00:50:01.478Z,985.80
2022-10-20T00:51:01.437Z,985.77
2022-10-20T00:52:01.457Z,985.73
2022-10-20T00:53:01.408Z,985.73
2022-10-20T00:54:01.466Z,985.74
2022-10-20T00:55:01.381Z,985.73
2022-10-20T00:56:01.418Z,985.75
2022-10-20T00:58:01.371Z,985.69
2022-10-20T00:59:01.347Z,985.69
2022-10-20T01:00:01.345Z,985.69
2022-10-20T01:01:01.320Z,985.65
2022-10-20T01:02:01.381Z,985.67
2022-10-20T01:03:01.327Z,985.64
2022-10-20T01:04:02.153Z,985.65
2022-10-20T01:05:01.353Z,985.65
2022-10-20T01:06:01.275Z,985.65
2022-10-20T01:07:01.259Z,985.66
2022-10-20T01:08:01.291Z,985.65
2022-10-20T01:09:01.335Z,985.69
2022-10-20T01:10:01.228Z,985.69
2022-10-20T01:11:01.228Z,985.70
2022-10-20T01:12:01.206Z,985.68
2022-10-20T01:13:01.187Z,985.68
2022-10-20T01:14:01.187Z,985.62
2022-10-20T01:15:01.213Z,985.57
2022-10-20T01:16:01.166Z,985.52
2022-10-20T01:17:01.128Z,985.46
2022-10-20T01:18:01.151Z,985.41
2022-10-20T01:19:01.121Z,985.38
2022-10-20T01:20:01.167Z,985.42
2022-10-20T01:21:01.096Z,985.38
2022-10-20T01:22:01.098Z,985.41
2022-10-20T01:23:01.070Z,985.41
2022-10-20T01:24:01.068Z,985.38
2022-10-20T01:25:01.068Z,985.43
2022-10-20T01:26:01.087Z,985.38
2022-10-20T01:27:01.106Z,985.37
2022-10-20T01:28:01.036Z,985.32
2022-10-20T01:29:00.994Z,985.35
2022-10-20T01:30:01.015Z,985.37
2022-10-20T01:31:00.986Z,985.32
2022-10-20T01:32:00.977Z,985.26
2022-10-20T01:33:00.987Z,985.28
2022-10-20T01:34:00.977Z,985.31
2022-10-20T01:35:00.934Z,985.32
2022-10-20T01:36:00.937Z,985.29
2022-10-20T01:37:00.905Z,985.35
2022-10-20T01:38:00.917Z,985.35
2022-10-20T01:39:00.924Z,985.31
2022-10-20T01:40:00.900Z,985.29
2022-10-20T01:41:00.880Z,985.31
2022-10-20T01:42:00.864Z,985.30
2022-10-20T01:43:01.271Z,985.30
2022-10-20T01:44:00.868Z,985.27
2022-10-20T01:45:00.827Z,985.29
2022-10-20T01:46:01.704Z,985.36
2022-10-20T01:47:01.608Z,985.32
2022-10-20T01:48:00.795Z,985.28
2022-10-20T01:49:00.775Z,985.26
2022-10-20T01:50:00.775Z,985.21
2022-10-20T01:51:00.762Z,985.18
2022-10-20T01:52:00.747Z,985.15
2022-10-20T01:53:00.735Z,985.18
2022-10-20T01:54:00.730Z,985.09
2022-10-20T01:55:00.724Z,985.08
2022-10-20T01:56:00.690Z,985.07
2022-10-20T01:57:00.741Z,985.07
2022-10-20T01:58:00.687Z,985.05
2022-10-20T01:59:00.676Z,985.01
2022-10-20T02:00:00.654Z,984.99
2022-10-20T02:01:00.673Z,984.97
2022-10-20T02:02:00.675Z,984.99
2022-10-20T02:03:00.661Z,985.00
2022-10-20T02:04:00.615Z,984.96
2022-10-20T02:05:00.644Z,985.00
2022-10-20T02:06:00.620Z,984.94
2022-10-20T02:07:00.584Z,984.93
2022-10-20T02:08:00.569Z,984.95
2022-10-20T02:09:00.615Z,984.88
2022-10-20T02:10:00.546Z,984.91
2022-10-20T02:11:00.552Z,984.89
2022-10-20T02:12:00.525Z,984.86
2022-10-20T02:13:00.513Z,984.89
2022-10-20T02:14:00.505Z,984.92
2022-10-20T02:15:00.514Z,984.88
2022-10-20T02:16:00.478Z,984.87
2022-10-20T02:17:00.472Z,984.84
2022-10-20T02:18:00.443Z,984.95
2022-10-20T02:19:00.464Z,984.81
2022-10-20T02:20:00.434Z,984.82
2022-10-20T02:21:00.436Z,984.89
2022-10-20T02:22:00.409Z,984.85
2022-10-20T02:23:00.403Z,984.88
2022-10-20T02:24:00.384Z,984.83
2022-10-20T02:25:00.398Z,984.85
2022-10-20T02:26:00.587Z,984.82
2022-10-20T02:27:01.093Z,984.84
2022-10-20T02:29:00.693Z,984.78
2022-10-20T02:30:00.341Z,984.74
2022-10-20T02:31:00.358Z,984.77
2022-10-20T02:32:00.292Z,984.72
2022-10-20T02:33:00.303Z,984.73
2022-10-20T02:34:00.272Z,984.71
2022-10-20T02:35:04.938Z,984.68
2022-10-20T02:36:01.256Z,984.67
2022-10-20T02:37:00.257Z,984.64
2022-10-20T02:38:00.226Z,984.55
2022-10-20T02:39:00.345Z,984.55
2022-10-20T02:40:00.217Z,984.51
2022-10-20T02:41:00.207Z,984.47
2022-10-20T02:42:00.194Z,984.45
2022-10-20T02:43:00.185Z,984.41
2022-10-20T02:44:00.183Z,984.42
2022-10-20T02:45:01.602Z,984.46
2022-10-20T02:46:00.144Z,984.42
2022-10-20T02:47:00.153Z,984.42
2022-10-20T02:48:00.403Z,984.43
2022-10-20T02:49:00.119Z,984.43
2022-10-20T02:50:00.534Z,984.38
2022-10-20T02:51:00.100Z,984.42
2022-10-20T02:52:00.067Z,984.38
2022-10-20T02:53:00.084Z,984.37
2022-10-20T02:54:00.076Z,984.46
2022-10-20T02:55:00.058Z,984.39
2022-10-20T02:56:00.031Z,984.43
2022-10-20T02:57:00.024Z,984.38
2022-10-20T02:58:00.005Z,984.42
2022-10-20T02:59:00.014Z,984.36
2022-10-20T03:00:00.002Z,984.42
2022-10-20T03:00:59.973Z,984.35
2022-10-20T03:02:00.005Z,984.33
2022-10-20T03:02:59.978Z,984.32
2022-10-20T03:04:00.040Z,984.34
2022-10-20T03:04:59.946Z,984.40
2022-10-20T03:05:59.911Z,984.36
2022-10-20T03:06:59.928Z,984.40
2022-10-20T03:08:00.431Z,984.38
2022-10-20T03:08:59.921Z,984.41
2022-10-20T03:09:59.893Z,984.46
2022-10-20T03:10:59.876Z,984.49
2022-10-20T03:11:59.842Z,984.50
2022-10-20T03:12:59.842Z,984.55
2022-10-20T03:13:59.813Z,984.49
2022-10-20T03:14:59.849Z,984.47
2022-10-20T03:15:59.805Z,984.43
2022-10-20T03:16:59.800Z,984.44
2022-10-20T03:17:59.801Z,984.41
2022-10-20T03:19:03.383Z,984.40
2022-10-20T03:20:00.779Z,984.34
2022-10-20T03:20:59.760Z,984.34
2022-10-20T03:21:59.732Z,984.26
2022-10-20T03:22:59.751Z,984.28
2022-10-20T03:23:59.716Z,984.24
2022-10-20T03:24:59.712Z,984.20
2022-10-20T03:25:59.706Z,984.25
2022-10-20T03:26:59.872Z,984.26
2022-10-20T03:28:00.610Z,984.23
2022-10-20T03:29:00.531Z,984.23
2022-10-20T03:29:59.640Z,984.16
2022-10-20T03:30:59.641Z,984.18
2022-10-20T03:31:59.659Z,984.16
2022-10-20T03:32:59.640Z,984.12
2022-10-20T03:33:59.603Z,984.15
2022-10-20T03:34:59.602Z,984.10
2022-10-20T03:35:59.572Z,984.13
2022-10-20T03:36:59.609Z,984.10
2022-10-20T03:37:59.558Z,984.16
2022-10-20T03:38:59.565Z,984.12
2022-10-20T03:39:59.542Z,984.08
2022-10-20T03:40:59.548Z,983.98
2022-10-20T03:41:59.510Z,984.01
2022-10-20T03:42:59.511Z,984.01
2022-10-20T03:43:59.600Z,983.99
2022-10-20T03:45:00.497Z,983.93
2022-10-20T03:45:59.459Z,983.93
2022-10-20T03:46:59.460Z,983.87
2022-10-20T03:47:59.619Z,983.87
2022-10-20T03:48:59.453Z,983.85
2022-10-20T03:49:59.465Z,983.86
2022-10-20T03:50:59.419Z,983.89
2022-10-20T03:51:59.407Z,983.90
2022-10-20T03:52:59.400Z,983.90
2022-10-20T03:53:59.406Z,983.94
2022-10-20T03:54:59.381Z,983.93
2022-10-20T03:55:59.351Z,983.96
2022-10-20T03:56:59.359Z,984.03
2022-10-20T03:57:59.330Z,983.97
2022-10-20T03:58:59.365Z,984.01
2022-10-20T03:59:59.308Z,983.94
2022-10-20T04:00:59.312Z,983.96
2022-10-20T04:01:59.291Z,983.95
2022-10-20T04:02:59.290Z,983.89
2022-10-20T04:03:59.270Z,983.95
2022-10-20T04:04:59.286Z,983.93
2022-10-20T04:05:59.422Z,983.91
2022-10-20T04:06:59.410Z,983.96
2022-10-20T04:07:59.250Z,983.90
2022-10-20T04:09:00.058Z,983.81
2022-10-20T04:09:59.320Z,983.80
2022-10-20T04:10:59.213Z,983.78
2022-10-20T04:11:59.202Z,983.85
2022-10-20T04:12:59.170Z,983.76
2022-10-20T04:13:59.159Z,983.82
2022-10-20T04:14:59.159Z,983.80
2022-10-20T04:15:59.138Z,983.78
2022-10-20T04:16:59.148Z,983.73
2022-10-20T04:17:59.110Z,983.75
2022-10-20T04:18:59.123Z,983.69
2022-10-20T04:19:59.177Z,983.66
2022-10-20T04:20:59.099Z,983.59
2022-10-20T04:21:59.078Z,983.59
2022-10-20T04:22:59.066Z,983.60
2022-10-20T04:23:59.039Z,983.58
2022-10-20T04:24:59.056Z,983.59
2022-10-20T04:25:59.029Z,983.61
2022-10-20T04:26:59.024Z,983.63
2022-10-20T04:27:59.019Z,983.60
2022-10-20T04:28:59.887Z,983.58
2022-10-20T04:29:58.996Z,983.62
2022-10-20T04:30:58.981Z,983.59
2022-10-20T04:31:58.970Z,983.59
2022-10-20T04:32:58.961Z,983.58
2022-10-20T04:33:58.926Z,983.59
2022-10-20T04:34:58.956Z,983.58
2022-10-20T04:35:58.909Z,983.58
2022-10-20T04:36:58.915Z,983.56
2022-10-20T04:37:58.936Z,983.61
2022-10-20T04:38:58.903Z,983.58
2022-10-20T04:39:58.864Z,983.59
2022-10-20T04:41:01.774Z,983.54
2022-10-20T04:41:59.851Z,983.58
2022-10-20T04:42:58.868Z,983.49
2022-10-20T04:43:58.876Z,983.48
2022-10-20T04:44:58.824Z,983.41
2022-10-20T04:46:00.659Z,983.44
2022-10-20T04:46:58.796Z,983.38
2022-10-20T04:47:58.777Z,983.45
2022-10-20T04:48:58.866Z,983.40
2022-10-20T04:49:59.647Z,983.41
2022-10-20T04:50:58.756Z,983.40
2022-10-20T04:52:01.019Z,983.45
2022-10-20T04:52:58.736Z,983.44
2022-10-20T04:53:58.752Z,983.41
2022-10-20T04:54:58.719Z,983.40
2022-10-20T04:55:58.685Z,983.38
2022-10-20T04:56:58.697Z,983.19
2022-10-20T04:57:58.658Z,983.18
2022-10-20T04:58:58.666Z,983.13
2022-10-20T04:59:58.645Z,983.17
2022-10-20T05:00:58.664Z,983.14
2022-10-20T05:01:58.728Z,983.17
2022-10-20T05:02:58.652Z,983.14
2022-10-20T05:03:58.596Z,983.21
2022-10-20T05:04:58.626Z,983.19
2022-10-20T05:05:58.586Z,983.10
2022-10-20T05:06:58.594Z,983.07
2022-10-20T05:07:58.555Z,983.06
2022-10-20T05:08:58.790Z,983.07
2022-10-20T05:09:59.278Z,982.97
2022-10-20T05:10:58.563Z,982.96
2022-10-20T05:11:58.516Z,982.94
2022-10-20T05:12:58.508Z,982.89
2022-10-20T05:13:58.475Z,982.84
2022-10-20T05:14:58.487Z,982.91
2022-10-20T05:15:58.495Z,982.87
2022-10-20T05:16:58.465Z,982.86
2022-10-20T05:17:58.444Z,982.88
2022-10-20T05:18:58.435Z,982.80
2022-10-20T05:19:58.415Z,982.80
2022-10-20T05:21:08.493Z,982.75
2022-10-20T05:21:59.404Z,982.72
2022-10-20T05:22:58.404Z,982.68
2022-10-20T05:23:58.373Z,982.67
2022-10-20T05:25:04.002Z,982.71
2022-10-20T05:25:59.348Z,982.72
2022-10-20T05:26:58.380Z,982.74
2022-10-20T05:27:58.325Z,982.62
2022-10-20T05:28:58.347Z,982.69
2022-10-20T05:29:59.148Z,982.67
2022-10-20T05:31:01.384Z,982.71
2022-10-20T05:31:58.303Z,982.72
2022-10-20T05:32:58.341Z,982.72
2022-10-20T05:33:58.782Z,982.74
2022-10-20T05:34:59.003Z,982.77
2022-10-20T05:35:58.251Z,982.75
2022-10-20T05:36:58.246Z,982.74
2022-10-20T05:37:58.216Z,982.69
2022-10-20T05:38:58.225Z,982.66
2022-10-20T05:39:58.203Z,982.63
2022-10-20T05:40:58.206Z,982.60
2022-10-20T05:41:58.181Z,982.51
2022-10-20T05:42:58.191Z,982.53
2022-10-20T05:43:58.157Z,982.50
2022-10-20T05:45:12.093Z,982.54
2022-10-20T05:45:59.120Z,982.54
2022-10-20T05:46:58.130Z,982.53
2022-10-20T05:47:58.102Z,982.55
2022-10-20T05:48:58.150Z,982.51
2022-10-20T05:49:58.660Z,982.47
2022-10-20T05:50:58.268Z,982.44
2022-10-20T05:51:58.671Z,982.43
2022-10-20T05:52:58.280Z,982.43
2022-10-20T05:53:58.065Z,982.41
2022-10-20T05:54:58.049Z,982.43
2022-10-20T05:55:58.038Z,982.50
2022-10-20T05:56:58.021Z,982.48
2022-10-20T05:57:57.998Z,982.47
2022-10-20T05:58:58.027Z,982.48
2022-10-20T05:59:57.970Z,982.42
2022-10-20T06:00:57.989Z,982.42
2022-10-20T06:01:57.959Z,982.36
2022-10-20T06:02:57.966Z,982.34
2022-10-20T06:03:57.920Z,982.39
2022-10-20T06:04:57.991Z,982.40
2022-10-20T06:05:57.943Z,982.45
2022-10-20T06:06:57.890Z,982.48
2022-10-20T06:07:57.898Z,982.52
2022-10-20T06:08:57.918Z,982.51
2022-10-20T06:09:57.872Z,982.56
2022-10-20T06:10:58.088Z,982.55
2022-10-20T06:11:58.784Z,982.50
2022-10-20T06:12:57.837Z,982.59
2022-10-20T06:13:58.251Z,982.55
2022-10-20T06:14:57.807Z,982.68
2022-10-20T06:15:57.810Z,982.65
2022-10-20T06:16:57.777Z,982.63
2022-10-20T06:17:57.796Z,982.69
2022-10-20T06:18:57.764Z,982.70
2022-10-20T06:19:57.790Z,982.70
2022-10-20T06:20:57.730Z,982.76
2022-10-20T06:22:00.070Z,982.78
2022-10-20T06:22:57.773Z,982.82
2022-10-20T06:23:57.710Z,982.76
2022-10-20T06:24:57.719Z,982.79
2022-10-20T06:25:57.699Z,982.76
2022-10-20T06:26:57.677Z,982.79
2022-10-20T06:27:57.667Z,982.85
2022-10-20T06:29:02.718Z,982.84
2022-10-20T06:29:58.639Z,982.87
2022-10-20T06:30:58.417Z,982.90
2022-10-20T06:31:58.595Z,982.93
2022-10-20T06:32:57.618Z,982.91
2022-10-20T06:33:57.617Z,982.91
2022-10-20T06:34:57.589Z,982.88
2022-10-20T06:35:57.581Z,982.92
2022-10-20T06:36:57.577Z,982.91
2022-10-20T06:37:57.568Z,982.95
2022-10-20T06:38:57.597Z,982.92
2022-10-20T06:39:57.540Z,982.85
2022-10-20T06:40:57.529Z,982.79
2022-10-20T06:41:57.541Z,982.78
2022-10-20T06:42:57.491Z,982.71
2022-10-20T06:43:57.496Z,982.71
2022-10-20T06:44:57.478Z,982.78
2022-10-20T06:45:57.488Z,982.72
2022-10-20T06:46:57.439Z,982.69
2022-10-20T06:47:57.441Z,982.65
2022-10-20T06:48:58.762Z,982.77
2022-10-20T06:49:57.437Z,982.70
2022-10-20T06:50:57.406Z,982.66
2022-10-20T06:51:57.535Z,982.71
2022-10-20T06:52:57.398Z,982.74
2022-10-20T06:53:57.416Z,982.75
2022-10-20T06:54:57.415Z,982.79
2022-10-20T06:55:57.373Z,982.84
2022-10-20T06:56:57.337Z,982.87
2022-10-20T06:57:57.457Z,982.85
2022-10-20T06:58:57.317Z,982.89
2022-10-20T06:59:57.336Z,982.92
2022-10-20T07:00:57.320Z,982.97
2022-10-20T07:01:57.416Z,982.96
2022-10-20T07:02:57.289Z,982.96
2022-10-20T07:03:57.274Z,982.93
2022-10-20T07:04:57.258Z,982.98
2022-10-20T07:05:57.299Z,982.97
2022-10-20T07:06:57.225Z,983.02
2022-10-20T07:07:57.226Z,983.02
2022-10-20T07:08:57.982Z,983.05
2022-10-20T07:09:57.206Z,983.05
2022-10-20T07:10:57.195Z,983.02
2022-10-20T07:11:57.222Z,983.06
2022-10-20T07:12:57.182Z,983.04
2022-10-20T07:13:57.185Z,983.01
2022-10-20T07:14:57.144Z,983.03
2022-10-20T07:15:57.135Z,982.90
2022-10-20T07:16:57.116Z,982.92
2022-10-20T07:17:57.159Z,982.94
2022-10-20T07:18:57.094Z,982.93
2022-10-20T07:19:57.131Z,982.99
2022-10-20T07:20:57.069Z,982.99
2022-10-20T07:21:57.078Z,982.93
2022-10-20T07:22:57.138Z,982.94
2022-10-20T07:23:57.062Z,982.92
2022-10-20T07:24:57.036Z,982.97
2022-10-20T07:25:57.072Z,982.98
2022-10-20T07:26:57.009Z,983.00
2022-10-20T07:27:57.136Z,982.94
2022-10-20T07:28:56.985Z,982.83
2022-10-20T07:29:56.990Z,982.84
2022-10-20T07:30:57.797Z,982.75
2022-10-20T07:31:59.937Z,982.70
2022-10-20T07:32:57.837Z,982.74
2022-10-20T07:34:06.910Z,982.75
2022-10-20T07:34:58.674Z,982.81
2022-10-20T07:35:56.965Z,982.82
2022-10-20T07:36:57.005Z,982.86
2022-10-20T07:37:57.604Z,982.97
2022-10-20T07:38:56.969Z,982.93
2022-10-20T07:39:56.913Z,982.90
2022-10-20T07:40:58.330Z,982.95
2022-10-20T07:41:57.740Z,982.88
2022-10-20T07:42:56.855Z,982.93
2022-10-20T07:43:56.868Z,982.91
2022-10-20T07:44:57.696Z,982.96
2022-10-20T07:45:57.606Z,982.95
2022-10-20T07:46:56.822Z,982.93
2022-10-20T07:47:56.800Z,982.99
2022-10-20T07:49:02.761Z,983.04
2022-10-20T07:49:57.781Z,983.06
2022-10-20T07:50:56.742Z,982.98
2022-10-20T07:51:56.793Z,982.97
2022-10-20T07:52:56.722Z,982.97
2022-10-20T07:53:59.666Z,982.92
2022-10-20T07:55:06.367Z,982.86
2022-10-20T07:55:57.724Z,982.87
2022-10-20T07:56:56.674Z,982.90
2022-10-20T07:57:56.683Z,982.88
2022-10-20T07:58:56.689Z,982.87
2022-10-20T07:59:56.653Z,982.84
2022-10-20T08:00:56.629Z,982.92
2022-10-20T08:01:59.566Z,982.92
2022-10-20T08:02:56.595Z,982.84
2022-10-20T08:03:56.614Z,982.84
2022-10-20T08:04:56.574Z,982.79
2022-10-20T08:05:56.579Z,982.76
2022-10-20T08:06:56.587Z,982.77
2022-10-20T08:07:58.321Z,982.80
2022-10-20T08:08:56.551Z,982.70
2022-10-20T08:09:56.551Z,982.67
2022-10-20T08:10:56.539Z,982.54
2022-10-20T08:11:56.549Z,982.55
2022-10-20T08:12:56.527Z,982.54
2022-10-20T08:13:56.511Z,982.49
2022-10-20T08:14:56.520Z,982.53
2022-10-20T08:15:57.385Z,982.51
2022-10-20T08:16:57.561Z,982.47
2022-10-20T08:17:56.451Z,982.46
2022-10-20T08:19:00.023Z,982.44
2022-10-20T08:20:04.184Z,982.39
2022-10-20T08:20:57.857Z,982.37
2022-10-20T08:21:56.486Z,982.22
2022-10-20T08:22:56.374Z,982.31
2022-10-20T08:23:56.384Z,982.27
2022-10-20T08:24:56.352Z,982.28
2022-10-20T08:25:56.402Z,982.27
2022-10-20T08:26:56.325Z,982.30
2022-10-20T08:27:56.368Z,982.35
2022-10-20T08:28:56.389Z,982.35
2022-10-20T08:30:06.095Z,982.33
2022-10-20T08:30:57.294Z,982.28
2022-10-20T08:31:56.297Z,982.27
2022-10-20T08:32:56.275Z,982.35
2022-10-20T08:33:56.277Z,982.33
2022-10-20T08:34:56.294Z,982.41
2022-10-20T08:35:56.313Z,982.40
2022-10-20T08:36:56.940Z,982.34
2022-10-20T08:37:56.936Z,982.28
2022-10-20T08:38:56.192Z,982.27
2022-10-20T08:39:56.201Z,982.29
2022-10-20T08:40:56.188Z,982.31
2022-10-20T08:42:07.915Z,982.35
2022-10-20T08:42:58.037Z,982.37
2022-10-20T08:43:56.157Z,982.32
2022-10-20T08:44:56.114Z,982.30
2022-10-20T08:45:56.127Z,982.27
2022-10-20T08:46:56.112Z,982.20
2022-10-20T08:47:56.515Z,982.20
2022-10-20T08:48:56.076Z,982.13
2022-10-20T08:49:56.083Z,982.20
2022-10-20T08:50:56.052Z,982.26
2022-10-20T08:51:56.088Z,982.28
2022-10-20T08:52:56.042Z,982.17
2022-10-20T08:53:56.975Z,982.19
2022-10-20T08:54:56.023Z,982.21
2022-10-20T08:55:56.085Z,982.15
2022-10-20T08:56:56.001Z,982.10
2022-10-20T08:57:56.001Z,982.14
2022-10-20T08:58:56.008Z,982.16
2022-10-20T08:59:55.972Z,982.18
2022-10-20T09:00:55.946Z,982.14
2022-10-20T09:01:55.986Z,982.13
2022-10-20T09:02:55.975Z,982.08
2022-10-20T09:03:55.935Z,982.11
2022-10-20T09:04:55.908Z,982.13
2022-10-20T09:05:55.902Z,981.98
2022-10-20T09:06:55.905Z,982.04
2022-10-20T09:07:55.904Z,982.01
2022-10-20T09:08:56.026Z,982.00
2022-10-20T09:09:56.248Z,981.95
2022-10-20T09:10:55.841Z,981.96
2022-10-20T09:11:55.862Z,981.97
2022-10-20T09:12:55.814Z,981.95
2022-10-20T09:13:55.852Z,981.93
2022-10-20T09:14:56.026Z,981.95
2022-10-20T09:15:55.814Z,981.95
2022-10-20T09:17:00.173Z,981.84
2022-10-20T09:17:56.766Z,981.76
2022-10-20T09:18:55.745Z,981.73
2022-10-20T09:19:55.793Z,981.78
2022-10-20T09:20:55.722Z,981.81
2022-10-20T09:21:55.724Z,981.82
2022-10-20T09:22:55.831Z,981.86
2022-10-20T09:23:55.714Z,981.83
2022-10-20T09:24:55.686Z,981.85
2022-10-20T09:25:55.712Z,981.83
2022-10-20T09:27:00.110Z,981.86
2022-10-20T09:27:55.685Z,981.92
2022-10-20T09:29:12.480Z,981.89
2022-10-20T09:29:56.701Z,981.98
2022-10-20T09:30:55.613Z,981.91
2022-10-20T09:31:55.636Z,981.95
2022-10-20T09:32:55.624Z,982.02
2022-10-20T09:33:55.591Z,982.00
2022-10-20T09:34:55.562Z,981.94
2022-10-20T09:35:56.329Z,981.90
2022-10-20T09:36:55.566Z,981.99
2022-10-20T09:37:55.559Z,982.11
2022-10-20T09:38:55.554Z,982.18
2022-10-20T09:39:55.999Z,982.20
2022-10-20T09:40:55.515Z,982.19
2022-10-20T09:41:55.563Z,982.12
2022-10-20T09:42:55.526Z,982.06
2022-10-20T09:43:57.327Z,982.06
2022-10-20T09:44:55.471Z,982.07
2022-10-20T09:45:55.479Z,982.06
2022-10-20T09:46:55.473Z,982.02
2022-10-20T09:48:04.785Z,981.97
2022-10-20T09:48:55.422Z,981.95
2022-10-20T09:49:59.989Z,981.90
2022-10-20T09:50:56.394Z,982.02
2022-10-20T09:51:55.419Z,981.94
2022-10-20T09:52:55.432Z,982.00
2022-10-20T09:53:55.395Z,981.97
2022-10-20T09:54:55.368Z,982.08
2022-10-20T09:55:56.160Z,982.15
2022-10-20T09:56:55.636Z,982.05
2022-10-20T09:57:55.834Z,982.03
2022-10-20T09:58:55.341Z,982.05
2022-10-20T09:59:55.831Z,982.06
2022-10-20T10:00:55.323Z,982.04
2022-10-20T10:01:55.291Z,982.01
2022-10-20T10:02:55.297Z,981.90
2022-10-20T10:03:55.274Z,981.90
2022-10-20T10:04:55.260Z,981.99
2022-10-20T10:05:55.254Z,981.98
2022-10-20T10:06:55.244Z,981.98
2022-10-20T10:07:55.268Z,982.06
2022-10-20T10:08:55.232Z,982.12
2022-10-20T10:09:55.213Z,982.20
2022-10-20T10:10:55.183Z,982.16
2022-10-20T10:11:55.184Z,982.19
2022-10-20T10:12:55.211Z,982.16
2022-10-20T10:13:55.166Z,982.12
2022-10-20T10:14:55.184Z,982.05
2022-10-20T10:15:56.001Z,982.05
2022-10-20T10:16:55.914Z,982.06
2022-10-20T10:17:55.120Z,981.96
2022-10-20T10:18:55.093Z,982.04
2022-10-20T10:19:56.364Z,982.04
2022-10-20T10:20:55.094Z,982.12
2022-10-20T10:21:55.093Z,982.09
2022-10-20T10:22:55.075Z,982.07
2022-10-20T10:23:55.064Z,982.10
2022-10-20T10:24:55.053Z,982.14
2022-10-20T10:25:59.150Z,982.17
2022-10-20T10:26:56.023Z,982.15
2022-10-20T10:27:55.027Z,982.10
2022-10-20T10:28:55.238Z,982.16
2022-10-20T10:29:54.992Z,982.18
2022-10-20T10:30:54.994Z,982.20
2022-10-20T10:31:54.953Z,982.21
2022-10-20T10:32:55.262Z,982.21
2022-10-20T10:33:54.938Z,982.13
2022-10-20T10:34:54.933Z,982.18
2022-10-20T10:35:54.936Z,982.18
2022-10-20T10:36:55.776Z,982.15
2022-10-20T10:37:55.704Z,982.15
2022-10-20T10:38:54.914Z,982.22
2022-10-20T10:39:54.872Z,982.21
2022-10-20T10:40:54.883Z,982.24
2022-10-20T10:41:54.906Z,982.24
2022-10-20T10:42:54.862Z,982.34
2022-10-20T10:43:54.822Z,982.29
2022-10-20T10:44:54.830Z,982.33
2022-10-20T10:45:54.827Z,982.31
2022-10-20T10:46:54.926Z,982.26
2022-10-20T10:47:54.806Z,982.29
2022-10-20T10:48:54.804Z,982.33
2022-10-20T10:49:54.777Z,982.30
2022-10-20T10:50:54.762Z,982.23
2022-10-20T10:51:54.733Z,982.19
2022-10-20T10:52:54.757Z,982.11
2022-10-20T10:53:54.715Z,982.12
2022-10-20T10:54:54.725Z,982.03
2022-10-20T10:55:54.708Z,981.99
2022-10-20T10:56:54.715Z,982.01
2022-10-20T10:57:55.563Z,981.99
2022-10-20T10:58:54.681Z,981.97
2022-10-20T10:59:54.671Z,981.98
2022-10-20T11:00:55.047Z,981.98
2022-10-20T11:01:54.631Z,981.96
2022-10-20T11:02:54.651Z,981.93
2022-10-20T11:03:54.602Z,981.91
2022-10-20T11:04:54.640Z,981.88
2022-10-20T11:05:54.592Z,981.89
2022-10-20T11:06:57.178Z,981.86
2022-10-20T11:07:54.572Z,981.84
2022-10-20T11:08:54.622Z,981.86
2022-10-20T11:09:54.544Z,981.90
2022-10-20T11:10:54.567Z,981.83
2022-10-20T11:11:54.520Z,981.88
2022-10-20T11:12:54.534Z,981.87
2022-10-20T11:13:54.513Z,981.84
2022-10-20T11:14:54.502Z,981.84
2022-10-20T11:15:54.511Z,981.83
2022-10-20T11:16:54.838Z,981.85
2022-10-20T11:17:54.522Z,981.89
2022-10-20T11:18:54.471Z,981.90
2022-10-20T11:19:54.435Z,981.84
2022-10-20T11:20:54.500Z,981.80
2022-10-20T11:21:54.427Z,981.68
2022-10-20T11:22:54.421Z,981.63
2022-10-20T11:23:54.384Z,981.60
2022-10-20T11:24:54.409Z,981.58
2022-10-20T11:25:54.374Z,981.53
2022-10-20T11:26:54.366Z,981.56
2022-10-20T11:27:54.367Z,981.56
2022-10-20T11:28:54.343Z,981.42
2022-10-20T11:29:54.324Z,981.40
2022-10-20T11:30:54.322Z,981.48
2022-10-20T11:31:54.326Z,981.49
2022-10-20T11:32:54.321Z,981.49
2022-10-20T11:33:54.273Z,981.44
2022-10-20T11:34:54.282Z,981.43
2022-10-20T11:35:54.262Z,981.49
2022-10-20T11:36:54.273Z,981.53
2022-10-20T11:37:54.248Z,981.38
2022-10-20T11:38:54.262Z,981.35
2022-10-20T11:39:54.205Z,981.36
2022-10-20T11:40:54.209Z,981.35
2022-10-20T11:41:54.192Z,981.38
2022-10-20T11:42:54.203Z,981.41
2022-10-20T11:43:54.209Z,981.40
2022-10-20T11:44:54.184Z,981.42
2022-10-20T11:45:54.148Z,981.49
2022-10-20T11:46:54.153Z,981.47
2022-10-20T11:47:54.135Z,981.39
2022-10-20T11:48:54.117Z,981.41
2022-10-20T11:49:54.081Z,981.39
2022-10-20T11:50:54.133Z,981.52
2022-10-20T11:51:54.063Z,981.59
2022-10-20T11:52:54.166Z,981.66
2022-10-20T11:53:54.080Z,981.81
2022-10-20T11:54:54.054Z,981.80
2022-10-20T11:55:54.022Z,981.81
2022-10-20T11:56:54.064Z,981.70
2022-10-20T11:57:56.445Z,981.64
2022-10-20T11:58:55.842Z,981.62
2022-10-20T11:59:53.993Z,981.62
2022-10-20T12:00:56.252Z,981.61
2022-10-20T12:01:54.994Z,981.66
2022-10-20T12:02:53.974Z,981.67
2022-10-20T12:03:53.932Z,981.68
2022-10-20T12:04:53.944Z,981.75
2022-10-20T12:05:53.911Z,981.75
2022-10-20T12:06:53.944Z,981.66
2022-10-20T12:08:00.810Z,981.72
2022-10-20T12:08:54.936Z,981.76
2022-10-20T12:09:53.873Z,981.81
2022-10-20T12:10:53.873Z,981.76
2022-10-20T12:11:53.844Z,981.79
2022-10-20T12:12:53.863Z,981.81
2022-10-20T12:13:53.828Z,981.72
2022-10-20T12:14:53.828Z,981.75
2022-10-20T12:15:53.812Z,981.71
2022-10-20T12:16:53.804Z,981.70
2022-10-20T12:17:53.773Z,981.72
2022-10-20T12:18:54.724Z,981.78
2022-10-20T12:19:53.804Z,981.72
2022-10-20T12:20:54.353Z,981.64
2022-10-20T12:21:53.742Z,981.61
2022-10-20T12:22:53.741Z,981.59
2022-10-20T12:23:53.718Z,981.54
2022-10-20T12:24:53.719Z,981.52
2022-10-20T12:25:53.724Z,981.48
2022-10-20T12:26:53.706Z,981.53
2022-10-20T12:27:53.677Z,981.56
2022-10-20T12:28:53.683Z,981.62
2022-10-20T12:29:53.690Z,981.61